NKS2503 MMUN-KFLL
Flight info
| Callsign | NKS2503 |
|---|---|
| Flight time | 1h 24m |
| Altitude | 37000 |
| Route | NUDA1A/12R NUDAL UV106 PODON UG765 MAXIM BHHIA3 |
| Aircraft | A320/M-SDE3FGHIRWY/LB1 |
Departure
| Time | 2026-05-03 20:36 |
|---|---|
| Airport | Cancún International Airport (MMUN) |
Arrival
| Time | 2026-05-03 22:00 |
|---|---|
| Airport | Fort Lauderdale Hollywood International Airport (KFLL) |
| Time | Latitude | Longitude | Altitude | Speed | Heading |
|---|---|---|---|---|---|
| 2026-05-03 20:15 | 21.03640 | -86.86760 | 41 ft | 0 kts | 303° |
| 2026-05-03 20:22 | 21.03634 | -86.86750 | 41 ft | 3 kts | 303° |
| 2026-05-03 20:22 | 21.03622 | -86.86732 | 40 ft | 3 kts | 303° |
| 2026-05-03 20:22 | 21.03611 | -86.86714 | 42 ft | 3 kts | 303° |
| 2026-05-03 20:23 | 21.03602 | -86.86698 | 40 ft | 3 kts | 293° |
| 2026-05-03 20:23 | 21.03597 | -86.86679 | 43 ft | 3 kts | 257° |
| 2026-05-03 20:23 | 21.03605 | -86.86661 | 41 ft | 3 kts | 226° |
| 2026-05-03 20:23 | 21.03617 | -86.86649 | 42 ft | 1 kts | 213° |
| 2026-05-03 20:24 | 21.03622 | -86.86646 | 42 ft | 0 kts | 213° |
| 2026-05-03 20:28 | 21.03605 | -86.86658 | 41 ft | 8 kts | 213° |
| 2026-05-03 20:28 | 21.03546 | -86.86700 | 43 ft | 11 kts | 214° |
| 2026-05-03 20:28 | 21.03478 | -86.86748 | 43 ft | 13 kts | 213° |
| 2026-05-03 20:29 | 21.03400 | -86.86803 | 42 ft | 14 kts | 214° |
| 2026-05-03 20:29 | 21.03345 | -86.86885 | 41 ft | 15 kts | 288° |
| 2026-05-03 20:29 | 21.03405 | -86.86986 | 41 ft | 17 kts | 304° |
| 2026-05-03 20:29 | 21.03472 | -86.87091 | 42 ft | 18 kts | 303° |
| 2026-05-03 20:30 | 21.03542 | -86.87204 | 42 ft | 19 kts | 303° |
| 2026-05-03 20:30 | 21.03616 | -86.87325 | 42 ft | 20 kts | 303° |
| 2026-05-03 20:30 | 21.03696 | -86.87453 | 42 ft | 21 kts | 304° |
| 2026-05-03 20:30 | 21.03782 | -86.87588 | 41 ft | 23 kts | 304° |
| 2026-05-03 20:31 | 21.03872 | -86.87732 | 42 ft | 24 kts | 303° |
| 2026-05-03 20:31 | 21.03966 | -86.87880 | 42 ft | 24 kts | 304° |
| 2026-05-03 20:31 | 21.04060 | -86.88028 | 42 ft | 24 kts | 303° |
| 2026-05-03 20:31 | 21.04148 | -86.88172 | 41 ft | 22 kts | 304° |
| 2026-05-03 20:32 | 21.04231 | -86.88301 | 42 ft | 20 kts | 304° |
| 2026-05-03 20:32 | 21.04302 | -86.88414 | 42 ft | 17 kts | 304° |
| 2026-05-03 20:32 | 21.04373 | -86.88527 | 42 ft | 19 kts | 303° |
| 2026-05-03 20:32 | 21.04447 | -86.88648 | 42 ft | 20 kts | 303° |
| 2026-05-03 20:33 | 21.04526 | -86.88777 | 42 ft | 21 kts | 303° |
| 2026-05-03 20:33 | 21.04610 | -86.88914 | 41 ft | 23 kts | 303° |
| 2026-05-03 20:33 | 21.04615 | -86.89021 | 40 ft | 8 kts | 215° |
| 2026-05-03 20:33 | 21.04609 | -86.89025 | 39 ft | 0 kts | 214° |
| 2026-05-03 20:34 | 21.04606 | -86.89027 | 38 ft | 2 kts | 214° |
| 2026-05-03 20:34 | 21.04579 | -86.89047 | 37 ft | 8 kts | 214° |
| 2026-05-03 20:34 | 21.04527 | -86.89071 | 36 ft | 8 kts | 161° |
| 2026-05-03 20:35 | 21.04470 | -86.89001 | 36 ft | 30 kts | 126° |
| 2026-05-03 20:35 | 21.04226 | -86.88610 | 39 ft | 93 kts | 123° |
| 2026-05-03 20:35 | 21.03773 | -86.87886 | 39 ft | 138 kts | 124° |
| 2026-05-03 20:35 | 21.03173 | -86.86921 | 194 ft | 163 kts | 124° |
| 2026-05-03 20:36 | 21.02558 | -86.85916 | 828 ft | 161 kts | 126° |
| 2026-05-03 20:36 | 21.01927 | -86.84910 | 1499 ft | 162 kts | 126° |
| 2026-05-03 20:36 | 21.01280 | -86.83886 | 1996 ft | 174 kts | 124° |
| 2026-05-03 20:36 | 21.00608 | -86.82713 | 2278 ft | 197 kts | 117° |
| 2026-05-03 20:37 | 20.99950 | -86.81332 | 2555 ft | 222 kts | 117° |
| 2026-05-03 20:37 | 20.99204 | -86.79777 | 2943 ft | 247 kts | 117° |
| 2026-05-03 20:37 | 20.98386 | -86.78072 | 3463 ft | 264 kts | 117° |
| 2026-05-03 20:37 | 20.97537 | -86.76302 | 4220 ft | 270 kts | 117° |
| 2026-05-03 20:38 | 20.96665 | -86.74486 | 4803 ft | 277 kts | 117° |
| 2026-05-03 20:38 | 20.96048 | -86.72546 | 4966 ft | 277 kts | 95° |
| 2026-05-03 20:38 | 20.96242 | -86.70496 | 5437 ft | 281 kts | 77° |
| 2026-05-03 20:38 | 20.96655 | -86.68436 | 6242 ft | 284 kts | 78° |
| 2026-05-03 20:39 | 20.97051 | -86.66347 | 6983 ft | 288 kts | 78° |
| 2026-05-03 20:39 | 20.97440 | -86.64258 | 7700 ft | 292 kts | 78° |
| 2026-05-03 20:39 | 20.97844 | -86.62080 | 8448 ft | 296 kts | 78° |
| 2026-05-03 20:39 | 20.98256 | -86.59915 | 9209 ft | 298 kts | 74° |
| 2026-05-03 20:40 | 20.98918 | -86.57832 | 9921 ft | 301 kts | 68° |
| 2026-05-03 20:40 | 20.99663 | -86.55702 | 10362 ft | 314 kts | 68° |
| 2026-05-03 20:40 | 21.00459 | -86.53433 | 10520 ft | 336 kts | 68° |
| 2026-05-03 20:40 | 21.01286 | -86.51052 | 10963 ft | 345 kts | 68° |
| 2026-05-03 20:41 | 21.02122 | -86.48633 | 11528 ft | 349 kts | 68° |
| 2026-05-03 20:41 | 21.02974 | -86.46173 | 12120 ft | 353 kts | 69° |
| 2026-05-03 20:41 | 21.03832 | -86.43697 | 12711 ft | 357 kts | 69° |
| 2026-05-03 20:41 | 21.04701 | -86.41190 | 13278 ft | 361 kts | 69° |
| 2026-05-03 20:42 | 21.05566 | -86.38689 | 13826 ft | 364 kts | 69° |
| 2026-05-03 20:42 | 21.06161 | -86.36974 | 14151 ft | 367 kts | 69° |
| 2026-05-03 20:42 | 21.07057 | -86.34397 | 14633 ft | 370 kts | 69° |
| 2026-05-03 20:42 | 21.07960 | -86.31802 | 15112 ft | 374 kts | 69° |
| 2026-05-03 20:43 | 21.09166 | -86.28326 | 15751 ft | 378 kts | 69° |
| 2026-05-03 20:43 | 21.09783 | -86.26542 | 16072 ft | 381 kts | 69° |
| 2026-05-03 20:43 | 21.10708 | -86.23861 | 16509 ft | 386 kts | 68° |
| 2026-05-03 20:43 | 21.11646 | -86.21147 | 16950 ft | 390 kts | 69° |
| 2026-05-03 20:44 | 21.12591 | -86.18405 | 17427 ft | 394 kts | 69° |
| 2026-05-03 20:44 | 21.13540 | -86.15645 | 17900 ft | 398 kts | 69° |
| 2026-05-03 20:44 | 21.14501 | -86.12851 | 18349 ft | 401 kts | 68° |
| 2026-05-03 20:44 | 21.15469 | -86.10043 | 18757 ft | 404 kts | 68° |
| 2026-05-03 20:45 | 21.16452 | -86.07200 | 19179 ft | 407 kts | 68° |
| 2026-05-03 20:45 | 21.17437 | -86.04349 | 19599 ft | 409 kts | 68° |
| 2026-05-03 20:45 | 21.18425 | -86.01476 | 20025 ft | 412 kts | 68° |
| 2026-05-03 20:45 | 21.19364 | -85.98606 | 20437 ft | 416 kts | 73° |
| 2026-05-03 20:46 | 21.19992 | -85.95572 | 20840 ft | 419 kts | 78° |
| 2026-05-03 20:46 | 21.20569 | -85.92497 | 21255 ft | 422 kts | 78° |
| 2026-05-03 20:46 | 21.21153 | -85.89408 | 21659 ft | 424 kts | 78° |
| 2026-05-03 20:46 | 21.21746 | -85.86289 | 22065 ft | 427 kts | 77° |
| 2026-05-03 20:47 | 21.22340 | -85.83162 | 22475 ft | 430 kts | 77° |
| 2026-05-03 20:47 | 21.22939 | -85.80010 | 22873 ft | 433 kts | 77° |
| 2026-05-03 20:47 | 21.23541 | -85.76842 | 23277 ft | 435 kts | 77° |
| 2026-05-03 20:47 | 21.24145 | -85.73647 | 23645 ft | 438 kts | 78° |
| 2026-05-03 20:48 | 21.24749 | -85.70440 | 23973 ft | 441 kts | 78° |
| 2026-05-03 20:48 | 21.25387 | -85.67205 | 24293 ft | 443 kts | 74° |
| 2026-05-03 20:48 | 21.26411 | -85.64090 | 24603 ft | 444 kts | 64° |
| 2026-05-03 20:48 | 21.27920 | -85.61209 | 24906 ft | 445 kts | 53° |
| 2026-05-03 20:49 | 21.29852 | -85.58670 | 25200 ft | 444 kts | 43° |
| 2026-05-03 20:49 | 21.32119 | -85.56414 | 25506 ft | 446 kts | 39° |
| 2026-05-03 20:49 | 21.34457 | -85.54150 | 25815 ft | 449 kts | 39° |
| 2026-05-03 20:49 | 21.36749 | -85.51925 | 26120 ft | 451 kts | 39° |
| 2026-05-03 20:50 | 21.39081 | -85.49653 | 26420 ft | 454 kts | 40° |
| 2026-05-03 20:50 | 21.41420 | -85.47368 | 26728 ft | 457 kts | 40° |
| 2026-05-03 20:50 | 21.43779 | -85.45059 | 27002 ft | 460 kts | 40° |
| 2026-05-03 20:50 | 21.46144 | -85.42740 | 27286 ft | 462 kts | 40° |
| 2026-05-03 20:51 | 21.48529 | -85.40405 | 27591 ft | 464 kts | 40° |
| 2026-05-03 20:51 | 21.50920 | -85.38067 | 27881 ft | 467 kts | 40° |
| 2026-05-03 20:51 | 21.53336 | -85.35708 | 28169 ft | 469 kts | 40° |
| 2026-05-03 20:51 | 21.55755 | -85.33343 | 28460 ft | 472 kts | 40° |
| 2026-05-03 20:52 | 21.58191 | -85.30959 | 28754 ft | 475 kts | 40° |
| 2026-05-03 20:52 | 21.60583 | -85.28493 | 29039 ft | 478 kts | 45° |
| 2026-05-03 20:52 | 21.62839 | -85.25859 | 29331 ft | 481 kts | 46° |
| 2026-05-03 20:52 | 21.65101 | -85.23186 | 29645 ft | 484 kts | 46° |
| 2026-05-03 20:53 | 21.67384 | -85.20489 | 29946 ft | 487 kts | 46° |
| 2026-05-03 20:53 | 21.69859 | -85.18021 | 30195 ft | 486 kts | 35° |
| 2026-05-03 20:53 | 21.72563 | -85.15914 | 30449 ft | 487 kts | 32° |
| 2026-05-03 20:53 | 21.75328 | -85.13811 | 30772 ft | 488 kts | 33° |
| 2026-05-03 20:54 | 21.78027 | -85.11605 | 31156 ft | 487 kts | 37° |
| 2026-05-03 20:54 | 21.82707 | -85.06312 | 31915 ft | 489 kts | 46° |
| 2026-05-03 20:54 | 21.84987 | -85.03537 | 32283 ft | 488 kts | 46° |
| 2026-05-03 20:55 | 21.87200 | -85.00842 | 32690 ft | 486 kts | 46° |
| 2026-05-03 20:55 | 21.89436 | -84.98109 | 33075 ft | 485 kts | 46° |
| 2026-05-03 20:55 | 21.91657 | -84.95387 | 33465 ft | 485 kts | 46° |
| 2026-05-03 20:55 | 21.93881 | -84.92652 | 33845 ft | 484 kts | 45° |
| 2026-05-03 20:56 | 21.96347 | -84.90240 | 34177 ft | 476 kts | 29° |
| 2026-05-03 20:56 | 21.99263 | -84.88669 | 34459 ft | 464 kts | 12° |
| 2026-05-03 20:56 | 22.02388 | -84.87809 | 34730 ft | 460 kts | 7° |
| 2026-05-03 20:56 | 22.05518 | -84.87071 | 35032 ft | 460 kts | 6° |
| 2026-05-03 20:57 | 22.08647 | -84.86292 | 35277 ft | 462 kts | 7° |
| 2026-05-03 20:57 | 22.11738 | -84.85490 | 35521 ft | 463 kts | 7° |
| 2026-05-03 20:57 | 22.14870 | -84.84675 | 35804 ft | 463 kts | 7° |
| 2026-05-03 20:57 | 22.18003 | -84.83859 | 36093 ft | 462 kts | 7° |
| 2026-05-03 20:58 | 22.21118 | -84.82997 | 36375 ft | 466 kts | 13° |
| 2026-05-03 20:58 | 22.24078 | -84.81478 | 36667 ft | 478 kts | 29° |
| 2026-05-03 20:58 | 22.26606 | -84.79110 | 36931 ft | 488 kts | 45° |
| 2026-05-03 20:58 | 22.28850 | -84.76274 | 37024 ft | 491 kts | 46° |
| 2026-05-03 20:59 | 22.33208 | -84.70656 | 37012 ft | 491 kts | 46° |
| 2026-05-03 20:59 | 22.37096 | -84.64573 | 37051 ft | 495 kts | 59° |
| 2026-05-03 21:00 | 22.40282 | -84.59500 | 37021 ft | 490 kts | 45° |
| 2026-05-03 21:00 | 22.45753 | -84.53272 | 37018 ft | 488 kts | 41° |
| 2026-05-03 21:01 | 22.50417 | -84.47927 | 37023 ft | 490 kts | 44° |
| 2026-05-03 21:01 | 22.54841 | -84.42272 | 37023 ft | 492 kts | 47° |
| 2026-05-03 21:02 | 22.59136 | -84.36550 | 37032 ft | 493 kts | 47° |
| 2026-05-03 21:02 | 22.63497 | -84.30829 | 37032 ft | 492 kts | 46° |
| 2026-05-03 21:03 | 22.67904 | -84.25160 | 37045 ft | 492 kts | 46° |
| 2026-05-03 21:03 | 22.72331 | -84.19505 | 37040 ft | 493 kts | 46° |
| 2026-05-03 21:04 | 22.76748 | -84.13817 | 37037 ft | 493 kts | 46° |
| 2026-05-03 21:04 | 22.81147 | -84.08106 | 37037 ft | 494 kts | 46° |
| 2026-05-03 21:05 | 22.85555 | -84.02387 | 37041 ft | 494 kts | 46° |
| 2026-05-03 21:05 | 22.89970 | -83.96677 | 37038 ft | 494 kts | 46° |
| 2026-05-03 21:06 | 22.94379 | -83.90958 | 37035 ft | 494 kts | 46° |
| 2026-05-03 21:06 | 22.98781 | -83.85237 | 37064 ft | 494 kts | 46° |
| 2026-05-03 21:07 | 23.03188 | -83.79501 | 37047 ft | 494 kts | 47° |
| 2026-05-03 21:07 | 23.07561 | -83.73795 | 37046 ft | 495 kts | 47° |
| 2026-05-03 21:08 | 23.11967 | -83.68048 | 37037 ft | 495 kts | 47° |
| 2026-05-03 21:08 | 23.16378 | -83.62296 | 37036 ft | 495 kts | 47° |
| 2026-05-03 21:09 | 23.20786 | -83.56539 | 37039 ft | 495 kts | 47° |
| 2026-05-03 21:09 | 23.25189 | -83.50781 | 37038 ft | 495 kts | 47° |
| 2026-05-03 21:10 | 23.29594 | -83.45019 | 37061 ft | 495 kts | 47° |
| 2026-05-03 21:10 | 23.33990 | -83.39246 | 37037 ft | 496 kts | 47° |
| 2026-05-03 21:11 | 23.38399 | -83.33449 | 37025 ft | 497 kts | 47° |
| 2026-05-03 21:11 | 23.42783 | -83.27684 | 37022 ft | 498 kts | 47° |
| 2026-05-03 21:12 | 23.47208 | -83.21880 | 37030 ft | 498 kts | 47° |
| 2026-05-03 21:12 | 23.51667 | -83.16016 | 37034 ft | 499 kts | 47° |
| 2026-05-03 21:13 | 23.56045 | -83.10228 | 37038 ft | 498 kts | 47° |
| 2026-05-03 21:13 | 23.60447 | -83.04410 | 37047 ft | 498 kts | 47° |
| 2026-05-03 21:14 | 23.64861 | -82.98578 | 37026 ft | 499 kts | 47° |
| 2026-05-03 21:14 | 23.69275 | -82.92733 | 37026 ft | 500 kts | 47° |
| 2026-05-03 21:15 | 23.73706 | -82.86864 | 37026 ft | 501 kts | 47° |
| 2026-05-03 21:15 | 23.78131 | -82.80995 | 37029 ft | 501 kts | 47° |
| 2026-05-03 21:16 | 23.82561 | -82.75112 | 37038 ft | 501 kts | 47° |
| 2026-05-03 21:16 | 23.86997 | -82.69220 | 37038 ft | 501 kts | 47° |
| 2026-05-03 21:17 | 23.90674 | -82.64326 | 37053 ft | 502 kts | 48° |
| 2026-05-03 21:17 | 23.95847 | -82.57428 | 37029 ft | 503 kts | 47° |
| 2026-05-03 21:18 | 24.00297 | -82.51506 | 37028 ft | 504 kts | 47° |
| 2026-05-03 21:18 | 24.04993 | -82.45817 | 37028 ft | 502 kts | 43° |
| 2026-05-03 21:19 | 24.07439 | -82.43075 | 36920 ft | 506 kts | 41° |
| 2026-05-03 21:19 | 24.09911 | -82.40340 | 36666 ft | 505 kts | 42° |
| 2026-05-03 21:19 | 24.12371 | -82.37602 | 36406 ft | 503 kts | 42° |
| 2026-05-03 21:19 | 24.14760 | -82.34897 | 36159 ft | 501 kts | 43° |
| 2026-05-03 21:20 | 24.17158 | -82.32135 | 35927 ft | 499 kts | 43° |
| 2026-05-03 21:20 | 24.19540 | -82.29358 | 35703 ft | 497 kts | 44° |
| 2026-05-03 21:20 | 24.21902 | -82.26590 | 35468 ft | 498 kts | 44° |
| 2026-05-03 21:20 | 24.24267 | -82.23820 | 35226 ft | 497 kts | 44° |
| 2026-05-03 21:21 | 24.26629 | -82.21060 | 34992 ft | 495 kts | 43° |
| 2026-05-03 21:21 | 24.28992 | -82.18311 | 34761 ft | 493 kts | 43° |
| 2026-05-03 21:21 | 24.31344 | -82.15581 | 34530 ft | 492 kts | 43° |
| 2026-05-03 21:21 | 24.33689 | -82.12860 | 34303 ft | 490 kts | 43° |
| 2026-05-03 21:22 | 24.36032 | -82.10139 | 34074 ft | 489 kts | 43° |
| 2026-05-03 21:22 | 24.38354 | -82.07442 | 33791 ft | 485 kts | 43° |
| 2026-05-03 21:22 | 24.40669 | -82.04750 | 33241 ft | 485 kts | 43° |
| 2026-05-03 21:22 | 24.42950 | -82.02093 | 32722 ft | 483 kts | 43° |
| 2026-05-03 21:23 | 24.45250 | -81.99409 | 32194 ft | 482 kts | 43° |
| 2026-05-03 21:23 | 24.47555 | -81.96747 | 31700 ft | 479 kts | 40° |
| 2026-05-03 21:23 | 24.50100 | -81.94371 | 31261 ft | 471 kts | 32° |
| 2026-05-03 21:23 | 24.52664 | -81.92203 | 30835 ft | 469 kts | 32° |
| 2026-05-03 21:24 | 24.55236 | -81.90026 | 30422 ft | 466 kts | 32° |
| 2026-05-03 21:24 | 24.57799 | -81.87854 | 29974 ft | 464 kts | 32° |
| 2026-05-03 21:24 | 24.60339 | -81.85697 | 29541 ft | 460 kts | 32° |
| 2026-05-03 21:24 | 24.62859 | -81.83549 | 29140 ft | 456 kts | 33° |
| 2026-05-03 21:25 | 24.65358 | -81.81417 | 28743 ft | 452 kts | 33° |
| 2026-05-03 21:25 | 24.67833 | -81.79309 | 28366 ft | 449 kts | 33° |
| 2026-05-03 21:25 | 24.70288 | -81.77221 | 27988 ft | 446 kts | 33° |
| 2026-05-03 21:25 | 24.72746 | -81.75126 | 27577 ft | 446 kts | 33° |
| 2026-05-03 21:26 | 24.75192 | -81.73028 | 27170 ft | 444 kts | 33° |
| 2026-05-03 21:26 | 24.77620 | -81.70933 | 26774 ft | 450 kts | 33° |
| 2026-05-03 21:26 | 24.80165 | -81.68742 | 26318 ft | 477 kts | 33° |
| 2026-05-03 21:26 | 24.82816 | -81.66459 | 25860 ft | 490 kts | 34° |
| 2026-05-03 21:27 | 24.85502 | -81.64131 | 25372 ft | 489 kts | 34° |
| 2026-05-03 21:27 | 24.88144 | -81.61834 | 24908 ft | 486 kts | 34° |
| 2026-05-03 21:27 | 24.90813 | -81.59511 | 24388 ft | 482 kts | 35° |
| 2026-05-03 21:27 | 24.93408 | -81.57254 | 23909 ft | 479 kts | 35° |
| 2026-05-03 21:28 | 24.96014 | -81.54992 | 23366 ft | 474 kts | 35° |
| 2026-05-03 21:28 | 24.98597 | -81.52750 | 22865 ft | 470 kts | 35° |
| 2026-05-03 21:28 | 25.01158 | -81.50532 | 22366 ft | 466 kts | 35° |
| 2026-05-03 21:28 | 25.03691 | -81.48335 | 21892 ft | 461 kts | 35° |
| 2026-05-03 21:29 | 25.06202 | -81.46157 | 21396 ft | 457 kts | 35° |
| 2026-05-03 21:29 | 25.08689 | -81.44000 | 20928 ft | 453 kts | 35° |
| 2026-05-03 21:29 | 25.11167 | -81.41851 | 20426 ft | 450 kts | 35° |
| 2026-05-03 21:29 | 25.13614 | -81.39725 | 19959 ft | 446 kts | 35° |
| 2026-05-03 21:30 | 25.15228 | -81.38322 | 19640 ft | 444 kts | 35° |
| 2026-05-03 21:30 | 25.18426 | -81.35537 | 19012 ft | 439 kts | 35° |
| 2026-05-03 21:30 | 25.20807 | -81.33464 | 18538 ft | 435 kts | 35° |
| 2026-05-03 21:30 | 25.22400 | -81.32078 | 18213 ft | 432 kts | 35° |
| 2026-05-03 21:31 | 25.24740 | -81.30009 | 17709 ft | 427 kts | 36° |
| 2026-05-03 21:31 | 25.27021 | -81.27937 | 17252 ft | 423 kts | 37° |
| 2026-05-03 21:31 | 25.29270 | -81.25861 | 16771 ft | 419 kts | 37° |
| 2026-05-03 21:31 | 25.31492 | -81.23798 | 16342 ft | 414 kts | 37° |
| 2026-05-03 21:32 | 25.33664 | -81.21781 | 16197 ft | 399 kts | 37° |
| 2026-05-03 21:32 | 25.35761 | -81.19840 | 15951 ft | 389 kts | 37° |
| 2026-05-03 21:32 | 25.37822 | -81.17941 | 15571 ft | 384 kts | 36° |
| 2026-05-03 21:32 | 25.39876 | -81.16060 | 15111 ft | 381 kts | 36° |
| 2026-05-03 21:33 | 25.41891 | -81.14222 | 14670 ft | 379 kts | 36° |
| 2026-05-03 21:33 | 25.43913 | -81.12375 | 14263 ft | 376 kts | 36° |
| 2026-05-03 21:33 | 25.45917 | -81.10542 | 13850 ft | 373 kts | 36° |
| 2026-05-03 21:33 | 25.47930 | -81.08696 | 13385 ft | 370 kts | 37° |
| 2026-05-03 21:34 | 25.49882 | -81.06902 | 12945 ft | 367 kts | 37° |
| 2026-05-03 21:34 | 25.51836 | -81.05100 | 12505 ft | 364 kts | 37° |
| 2026-05-03 21:34 | 25.53766 | -81.03306 | 12074 ft | 362 kts | 37° |
| 2026-05-03 21:34 | 25.55696 | -81.01520 | 11662 ft | 359 kts | 37° |
| 2026-05-03 21:35 | 25.57609 | -80.99759 | 11267 ft | 356 kts | 37° |
| 2026-05-03 21:35 | 25.59510 | -80.98012 | 10877 ft | 354 kts | 37° |
| 2026-05-03 21:35 | 25.61522 | -80.96478 | 10492 ft | 347 kts | 23° |
| 2026-05-03 21:35 | 25.63770 | -80.95613 | 10105 ft | 338 kts | 7° |
| 2026-05-03 21:36 | 25.66086 | -80.95346 | 9685 ft | 333 kts | 0° |
| 2026-05-03 21:36 | 25.68393 | -80.95160 | 9255 ft | 332 kts | 0° |
| 2026-05-03 21:36 | 25.70692 | -80.94973 | 8833 ft | 331 kts | 0° |
| 2026-05-03 21:36 | 25.72984 | -80.94784 | 8441 ft | 329 kts | 0° |
| 2026-05-03 21:37 | 25.75216 | -80.94596 | 8250 ft | 321 kts | 0° |
| 2026-05-03 21:37 | 25.77432 | -80.94407 | 8122 ft | 310 kts | 0° |
| 2026-05-03 21:37 | 25.79521 | -80.94231 | 8001 ft | 300 kts | 0° |
| 2026-05-03 21:37 | 25.81573 | -80.94062 | 7810 ft | 293 kts | 0° |
| 2026-05-03 21:38 | 25.83599 | -80.93895 | 7520 ft | 291 kts | 0° |
| 2026-05-03 21:38 | 25.85611 | -80.93728 | 7227 ft | 289 kts | 0° |
| 2026-05-03 21:38 | 25.87592 | -80.93354 | 7024 ft | 291 kts | 14° |
| 2026-05-03 21:38 | 25.89447 | -80.92416 | 7005 ft | 296 kts | 26° |
| 2026-05-03 21:39 | 25.91252 | -80.91304 | 7006 ft | 297 kts | 26° |
| 2026-05-03 21:39 | 25.93057 | -80.90199 | 7008 ft | 297 kts | 26° |
| 2026-05-03 21:39 | 25.94868 | -80.89092 | 7008 ft | 297 kts | 26° |
| 2026-05-03 21:39 | 25.96676 | -80.87986 | 7008 ft | 297 kts | 26° |
| 2026-05-03 21:40 | 25.98442 | -80.86900 | 7012 ft | 296 kts | 28° |
| 2026-05-03 21:40 | 26.00057 | -80.85483 | 7011 ft | 299 kts | 46° |
| 2026-05-03 21:40 | 26.01236 | -80.83572 | 7016 ft | 300 kts | 64° |
| 2026-05-03 21:40 | 26.01859 | -80.81351 | 7019 ft | 304 kts | 80° |
| 2026-05-03 21:41 | 26.02203 | -80.79017 | 7012 ft | 310 kts | 82° |
| 2026-05-03 21:41 | 26.02574 | -80.76670 | 6981 ft | 302 kts | 80° |
| 2026-05-03 21:41 | 26.02939 | -80.74417 | 6861 ft | 288 kts | 80° |
| 2026-05-03 21:41 | 26.03291 | -80.72263 | 6296 ft | 287 kts | 80° |
| 2026-05-03 21:42 | 26.03650 | -80.70056 | 5803 ft | 283 kts | 80° |
| 2026-05-03 21:42 | 26.03986 | -80.67975 | 5676 ft | 265 kts | 81° |
| 2026-05-03 21:42 | 26.04294 | -80.66028 | 5550 ft | 247 kts | 81° |
| 2026-05-03 21:42 | 26.04580 | -80.64211 | 5425 ft | 230 kts | 80° |
| 2026-05-03 21:43 | 26.04846 | -80.62522 | 5189 ft | 220 kts | 81° |
| 2026-05-03 21:43 | 26.05093 | -80.60968 | 5574 ft | 177 kts | 79° |
| 2026-05-03 21:43 | 26.05313 | -80.59628 | 6408 ft | 190 kts | 81° |
| 2026-05-03 21:43 | 26.05647 | -80.57863 | 6096 ft | 286 kts | 80° |
| 2026-05-03 21:44 | 26.06045 | -80.55624 | 5849 ft | 292 kts | 73° |
| 2026-05-03 21:44 | 26.06393 | -80.53397 | 4787 ft | 305 kts | 90° |
| 2026-05-03 21:44 | 26.06666 | -80.51234 | 4976 ft | 259 kts | 82° |
| 2026-05-03 21:44 | 26.06919 | -80.49391 | 4995 ft | 224 kts | 82° |
| 2026-05-03 21:45 | 26.07127 | -80.47786 | 4993 ft | 198 kts | 87° |
| 2026-05-03 21:45 | 26.07094 | -80.46312 | 4803 ft | 196 kts | 94° |
| 2026-05-03 21:45 | 26.07039 | -80.44637 | 4514 ft | 236 kts | 92° |
| 2026-05-03 21:45 | 26.06984 | -80.42759 | 4598 ft | 234 kts | 92° |
| 2026-05-03 21:46 | 26.06935 | -80.41002 | 4523 ft | 229 kts | 92° |
| 2026-05-03 21:46 | 26.06887 | -80.39247 | 4474 ft | 224 kts | 92° |
| 2026-05-03 21:46 | 26.06840 | -80.37523 | 4404 ft | 221 kts | 92° |
| 2026-05-03 21:46 | 26.06789 | -80.35828 | 4337 ft | 218 kts | 92° |
| 2026-05-03 21:47 | 26.06731 | -80.34148 | 4272 ft | 216 kts | 93° |
| 2026-05-03 21:47 | 26.06671 | -80.32488 | 4186 ft | 214 kts | 93° |
| 2026-05-03 21:47 | 26.06643 | -80.30737 | 4203 ft | 240 kts | 91° |
| 2026-05-03 21:47 | 26.06633 | -80.28941 | 4254 ft | 222 kts | 90° |
| 2026-05-03 21:48 | 26.06636 | -80.27291 | 4154 ft | 207 kts | 90° |
| 2026-05-03 21:48 | 26.06636 | -80.25725 | 4024 ft | 196 kts | 90° |
| 2026-05-03 21:48 | 26.06538 | -80.24271 | 3886 ft | 183 kts | 104° |
| 2026-05-03 21:48 | 26.06111 | -80.22999 | 3753 ft | 170 kts | 128° |
| 2026-05-03 21:49 | 26.05387 | -80.21973 | 3384 ft | 175 kts | 133° |
| 2026-05-03 21:49 | 26.04409 | -80.20957 | 2801 ft | 227 kts | 145° |
| 2026-05-03 21:49 | 26.02938 | -80.20051 | 3111 ft | 269 kts | 162° |
| 2026-05-03 21:49 | 26.00912 | -80.19607 | 2989 ft | 321 kts | 181° |
| 2026-05-03 21:50 | 25.98614 | -80.20134 | 2986 ft | 350 kts | 203° |
| 2026-05-03 21:50 | 25.96650 | -80.21558 | 2985 ft | 329 kts | 226° |
| 2026-05-03 21:50 | 25.95426 | -80.23602 | 3001 ft | 312 kts | 250° |
| 2026-05-03 21:50 | 25.95028 | -80.25909 | 3019 ft | 300 kts | 266° |
| 2026-05-03 21:51 | 25.94907 | -80.28168 | 3008 ft | 282 kts | 267° |
| 2026-05-03 21:51 | 25.95059 | -80.30206 | 3011 ft | 257 kts | 286° |
| 2026-05-03 21:51 | 25.95649 | -80.31992 | 3011 ft | 236 kts | 292° |
| 2026-05-03 21:51 | 25.96252 | -80.33603 | 3012 ft | 216 kts | 292° |
| 2026-05-03 21:52 | 25.96812 | -80.35072 | 3010 ft | 196 kts | 292° |
| 2026-05-03 21:52 | 25.97312 | -80.36384 | 3026 ft | 172 kts | 292° |
| 2026-05-03 21:52 | 25.97784 | -80.37605 | 3043 ft | 180 kts | 293° |
| 2026-05-03 21:52 | 25.98287 | -80.38921 | 3020 ft | 187 kts | 292° |
| 2026-05-03 21:53 | 25.98793 | -80.40253 | 3019 ft | 187 kts | 292° |
| 2026-05-03 21:53 | 25.99315 | -80.41603 | 3021 ft | 193 kts | 300° |
| 2026-05-03 21:53 | 25.99757 | -80.43029 | 3051 ft | 200 kts | 291° |
| 2026-05-03 21:53 | 26.00287 | -80.44500 | 3020 ft | 207 kts | 289° |
| 2026-05-03 21:54 | 26.01121 | -80.45783 | 3020 ft | 202 kts | 333° |
| 2026-05-03 21:54 | 26.02398 | -80.46256 | 2978 ft | 194 kts | 355° |
| 2026-05-03 21:54 | 26.03742 | -80.46178 | 2994 ft | 194 kts | 13° |
| 2026-05-03 21:54 | 26.04871 | -80.45366 | 3000 ft | 199 kts | 50° |
| 2026-05-03 21:55 | 26.05594 | -80.44049 | 3006 ft | 198 kts | 60° |
| 2026-05-03 21:55 | 26.06213 | -80.42691 | 3010 ft | 197 kts | 63° |
| 2026-05-03 21:55 | 26.06820 | -80.41315 | 3011 ft | 198 kts | 65° |
| 2026-05-03 21:55 | 26.07066 | -80.39822 | 3012 ft | 200 kts | 91° |
| 2026-05-03 21:56 | 26.07020 | -80.38273 | 3011 ft | 200 kts | 91° |
| 2026-05-03 21:56 | 26.06949 | -80.36734 | 3008 ft | 199 kts | 98° |
| 2026-05-03 21:56 | 26.06767 | -80.35218 | 3004 ft | 197 kts | 95° |
| 2026-05-03 21:56 | 26.06696 | -80.33707 | 2725 ft | 194 kts | 91° |
| 2026-05-03 21:57 | 26.06676 | -80.32214 | 2399 ft | 193 kts | 90° |
| 2026-05-03 21:57 | 26.06666 | -80.30735 | 2050 ft | 188 kts | 89° |
| 2026-05-03 21:57 | 26.06659 | -80.29297 | 1814 ft | 186 kts | 89° |
| 2026-05-03 21:57 | 26.06652 | -80.27842 | 1816 ft | 189 kts | 89° |
| 2026-05-03 21:58 | 26.06645 | -80.26381 | 1769 ft | 189 kts | 88° |
| 2026-05-03 21:58 | 26.06637 | -80.24926 | 1589 ft | 183 kts | 89° |
| 2026-05-03 21:58 | 26.06630 | -80.23596 | 1370 ft | 165 kts | 89° |
| 2026-05-03 21:58 | 26.06623 | -80.22369 | 1172 ft | 155 kts | 88° |
| 2026-05-03 21:59 | 26.06617 | -80.21183 | 985 ft | 147 kts | 88° |
| 2026-05-03 21:59 | 26.06611 | -80.20063 | 798 ft | 143 kts | 87° |
| 2026-05-03 21:59 | 26.06605 | -80.18959 | 608 ft | 143 kts | 88° |
| 2026-05-03 21:59 | 26.06600 | -80.17873 | 415 ft | 142 kts | 86° |
| 2026-05-03 22:00 | 26.06594 | -80.16773 | 226 ft | 141 kts | 88° |
| 2026-05-03 22:00 | 26.06584 | -80.15677 | 41 ft | 136 kts | 86° |
| 2026-05-03 22:00 | 26.06586 | -80.14775 | 24 ft | 95 kts | 91° |
| 2026-05-03 22:00 | 26.06582 | -80.14233 | 53 ft | 45 kts | 90° |
| 2026-05-03 22:01 | 26.06579 | -80.14066 | 72 ft | 8 kts | 91° |
| 2026-05-03 22:01 | 26.06579 | -80.13942 | 75 ft | 20 kts | 89° |
| 2026-05-03 22:01 | 26.06617 | -80.13797 | 68 ft | 20 kts | 53° |
| 2026-05-03 22:01 | 26.06693 | -80.13715 | 69 ft | 7 kts | 18° |
| 2026-05-03 22:02 | 26.06736 | -80.13740 | 73 ft | 8 kts | 303° |
| 2026-05-03 22:02 | 26.06743 | -80.13806 | 75 ft | 0 kts | 272° |
| 2026-05-03 22:02 | 26.06743 | -80.13817 | 66 ft | 4 kts | 271° |
| 2026-05-03 22:03 | 26.06743 | -80.13879 | 67 ft | 12 kts | 270° |
| 2026-05-03 22:03 | 26.06736 | -80.14000 | 74 ft | 18 kts | 255° |
| 2026-05-03 22:03 | 26.06683 | -80.14144 | 58 ft | 23 kts | 257° |
| 2026-05-03 22:03 | 26.06677 | -80.14257 | 49 ft | 11 kts | 270° |
| 2026-05-03 22:04 | 26.06677 | -80.14334 | 49 ft | 11 kts | 269° |
| 2026-05-03 22:04 | 26.06677 | -80.14432 | 46 ft | 16 kts | 270° |
| 2026-05-03 22:04 | 26.06676 | -80.14559 | 41 ft | 18 kts | 270° |
| 2026-05-03 22:04 | 26.06676 | -80.14700 | 30 ft | 14 kts | 271° |
| 2026-05-03 22:05 | 26.06678 | -80.14818 | 21 ft | 10 kts | 272° |
| 2026-05-03 22:05 | 26.06697 | -80.14898 | 19 ft | 10 kts | 299° |
| 2026-05-03 22:05 | 26.06725 | -80.14921 | 17 ft | 7 kts | 342° |
| 2026-05-03 22:05 | 26.06767 | -80.14984 | 16 ft | 15 kts | 273° |
| 2026-05-03 22:06 | 26.06775 | -80.15112 | 16 ft | 17 kts | 298° |
| 2026-05-03 22:06 | 26.06887 | -80.15126 | 17 ft | 15 kts | 20° |
| 2026-05-03 22:06 | 26.06912 | -80.15040 | 16 ft | 13 kts | 90° |
| 2026-05-03 22:06 | 26.06912 | -80.14951 | 16 ft | 8 kts | 90° |
| 2026-05-03 22:07 | 26.06912 | -80.14929 | 16 ft | 0 kts | 90° |